createdAt,value
2023-02-02T00:01:17.635Z,5.62
2023-02-02T00:02:27.232Z,6.00
2023-02-02T00:03:37.564Z,5.17
2023-02-02T00:04:46.190Z,5.95
2023-02-02T00:05:55.897Z,6.27
2023-02-02T00:07:06.069Z,5.90
2023-02-02T00:08:20.583Z,5.15
2023-02-02T00:09:31.462Z,5.20
2023-02-02T00:10:41.372Z,5.37
2023-02-02T00:11:51.190Z,4.90
2023-02-02T00:13:00.323Z,4.10
2023-02-02T00:14:10.384Z,5.27
2023-02-02T00:15:19.545Z,4.68
2023-02-02T00:17:47.845Z,5.28
2023-02-02T00:18:59.932Z,5.60
2023-02-02T00:20:10.051Z,6.10
2023-02-02T00:21:18.568Z,7.15
2023-02-02T00:22:27.908Z,6.06
2023-02-02T00:23:37.265Z,5.44
2023-02-02T00:24:47.511Z,5.55
2023-02-02T00:25:57.043Z,5.10
2023-02-02T00:27:05.972Z,4.93
2023-02-02T00:28:16.007Z,5.10
2023-02-02T00:29:27.416Z,5.28
2023-02-02T00:30:38.166Z,4.37
2023-02-02T00:31:49.089Z,4.95
2023-02-02T00:32:58.281Z,4.37
2023-02-02T00:34:07.521Z,4.80
2023-02-02T00:35:16.934Z,4.45
2023-02-02T00:36:25.950Z,4.55
2023-02-02T00:37:35.378Z,4.03
2023-02-02T00:38:45.342Z,4.87
2023-02-02T00:39:54.450Z,4.60
2023-02-02T00:41:03.907Z,5.23
2023-02-02T00:42:12.842Z,4.93
2023-02-02T00:43:21.557Z,4.67
2023-02-02T00:44:49.617Z,5.33
2023-02-02T00:45:59.454Z,4.77
2023-02-02T00:47:08.816Z,5.40
2023-02-02T00:48:19.265Z,5.20
2023-02-02T00:49:29.035Z,5.18
2023-02-02T00:50:38.117Z,6.58
2023-02-02T00:51:46.730Z,6.50
2023-02-02T00:52:58.416Z,6.80
2023-02-02T00:54:08.071Z,6.57
2023-02-02T00:55:18.887Z,6.83
2023-02-02T00:56:28.425Z,6.25
2023-02-02T00:57:39.015Z,7.18
2023-02-02T00:58:48.105Z,5.45
2023-02-02T00:59:57.209Z,5.40
2023-02-02T01:02:27.912Z,5.08
2023-02-02T01:03:37.531Z,5.10
2023-02-02T01:04:46.605Z,4.93
2023-02-02T01:05:55.721Z,5.17
2023-02-02T01:07:06.227Z,5.70
2023-02-02T01:08:15.737Z,5.65
2023-02-02T01:09:24.354Z,6.12
2023-02-02T01:10:34.797Z,5.32
2023-02-02T01:11:44.097Z,4.90
2023-02-02T01:12:54.016Z,5.15
2023-02-02T01:14:03.136Z,6.35
2023-02-02T01:15:12.994Z,5.10
2023-02-02T01:17:37.604Z,5.92
2023-02-02T01:18:46.641Z,5.74
2023-02-02T01:19:55.425Z,5.65
2023-02-02T01:21:07.641Z,5.93
2023-02-02T01:22:19.007Z,5.55
2023-02-02T01:23:29.415Z,5.85
2023-02-02T01:24:38.035Z,6.35
2023-02-02T01:27:06.358Z,5.43
2023-02-02T01:28:14.896Z,5.60
2023-02-02T01:29:25.593Z,5.80
2023-02-02T01:31:50.988Z,5.60
2023-02-02T01:33:01.737Z,6.10
2023-02-02T01:34:12.204Z,5.55
2023-02-02T01:35:23.295Z,4.95
2023-02-02T01:36:32.878Z,5.12
2023-02-02T01:37:42.553Z,5.38
2023-02-02T01:38:52.279Z,5.90
2023-02-02T01:40:01.394Z,5.18
2023-02-02T01:41:15.154Z,6.05
2023-02-02T01:42:25.832Z,5.63
2023-02-02T01:43:47.402Z,5.03
2023-02-02T01:46:29.773Z,5.42
2023-02-02T01:47:45.171Z,5.83
2023-02-02T01:49:01.149Z,5.32
2023-02-02T01:50:13.582Z,4.95
2023-02-02T01:51:26.892Z,5.23
2023-02-02T01:52:38.242Z,4.80
2023-02-02T01:53:49.277Z,5.32
2023-02-02T01:55:03.825Z,5.22
2023-02-02T01:56:18.406Z,4.87
2023-02-02T01:57:32.089Z,5.15
2023-02-02T01:58:42.782Z,5.70
2023-02-02T01:59:55.754Z,4.53
2023-02-02T02:01:07.829Z,5.35
2023-02-02T02:02:18.063Z,5.87
2023-02-02T02:03:32.457Z,5.00
2023-02-02T02:04:42.533Z,5.50
2023-02-02T02:07:13.724Z,5.60
2023-02-02T02:08:38.651Z,5.88
2023-02-02T02:09:48.093Z,5.60
2023-02-02T02:10:58.918Z,5.60
2023-02-02T02:13:52.350Z,5.28
2023-02-02T02:15:22.393Z,6.30
2023-02-02T02:18:37.853Z,6.12
2023-02-02T02:20:42.209Z,6.05
2023-02-02T02:22:23.059Z,5.47
2023-02-02T02:23:57.473Z,5.90
2023-02-02T02:25:38.102Z,6.07
2023-02-02T02:28:24.239Z,5.15
2023-02-02T02:31:30.746Z,5.98
2023-02-02T02:33:04.693Z,5.32
2023-02-02T02:34:36.933Z,6.10
2023-02-02T02:37:20.762Z,6.12
2023-02-02T02:38:43.139Z,6.25
2023-02-02T02:39:56.264Z,7.30
2023-02-02T02:42:31.953Z,8.20
2023-02-02T02:43:53.939Z,6.66
2023-02-02T02:45:06.123Z,6.87
2023-02-02T02:46:16.209Z,5.95
2023-02-02T02:47:27.677Z,5.93
2023-02-02T02:48:36.887Z,5.80
2023-02-02T02:49:48.101Z,6.10
2023-02-02T02:51:08.661Z,5.48
2023-02-02T02:52:18.896Z,6.47
2023-02-02T02:53:28.796Z,6.25
2023-02-02T02:54:53.008Z,6.68
2023-02-02T02:56:06.856Z,6.00
2023-02-02T03:00:41.933Z,7.00
2023-02-02T03:02:17.632Z,6.77
2023-02-02T03:05:33.950Z,7.38
2023-02-02T03:06:46.770Z,7.08
2023-02-02T03:09:41.430Z,8.00
2023-02-02T03:10:52.194Z,8.40
2023-02-02T03:12:01.539Z,8.60
2023-02-02T03:13:13.200Z,9.80
2023-02-02T03:14:24.272Z,7.85
2023-02-02T03:15:33.326Z,7.70
2023-02-02T03:16:42.299Z,7.22
2023-02-02T03:17:53.149Z,6.77
2023-02-02T03:20:12.363Z,6.07
2023-02-02T03:21:21.409Z,5.85
2023-02-02T03:22:31.133Z,6.25
2023-02-02T03:23:41.850Z,6.33
2023-02-02T03:26:01.016Z,6.45
2023-02-02T03:27:11.534Z,6.07
2023-02-02T03:28:23.594Z,6.72
2023-02-02T03:29:33.178Z,6.58
2023-02-02T03:30:44.602Z,6.60
2023-02-02T03:31:54.516Z,7.32
2023-02-02T03:33:04.678Z,5.93
2023-02-02T03:35:28.947Z,6.30
2023-02-02T03:36:38.032Z,6.80
2023-02-02T03:37:48.933Z,6.57
2023-02-02T03:38:58.955Z,6.20
2023-02-02T03:40:09.660Z,6.60
2023-02-02T03:41:19.292Z,6.73
2023-02-02T05:51:03.256Z,13.93
2023-02-02T05:52:17.765Z,11.27
2023-02-02T05:53:32.658Z,10.20
2023-02-02T05:54:42.976Z,8.65
2023-02-02T05:55:52.773Z,8.90
2023-02-02T05:57:03.709Z,8.95
2023-02-02T05:59:29.746Z,8.35
2023-02-02T06:00:39.099Z,8.87
2023-02-02T06:01:48.611Z,9.38
2023-02-02T06:02:57.146Z,8.72
2023-02-02T06:04:07.016Z,8.35
2023-02-02T06:05:16.243Z,8.67
2023-02-02T06:06:25.284Z,9.45
2023-02-02T06:07:34.511Z,8.92
2023-02-02T06:08:43.245Z,8.35
2023-02-02T06:09:52.666Z,8.90
2023-02-02T06:11:17.266Z,9.15
2023-02-02T06:12:26.080Z,7.93
2023-02-02T06:13:35.312Z,8.50
2023-02-02T06:14:45.000Z,8.30
2023-02-02T06:15:58.969Z,8.47
2023-02-02T06:17:08.766Z,8.50
2023-02-02T06:18:18.832Z,8.30
2023-02-02T06:19:27.374Z,8.62
2023-02-02T06:20:37.665Z,7.82
2023-02-02T06:21:46.093Z,7.30
2023-02-02T06:22:54.956Z,8.98
2023-02-02T06:24:04.705Z,8.45
2023-02-02T06:25:14.351Z,8.75
2023-02-02T06:27:38.805Z,9.50
2023-02-02T06:28:52.926Z,9.35
2023-02-02T06:30:01.923Z,9.55
2023-02-02T06:31:12.194Z,8.77
2023-02-02T06:32:21.979Z,9.10
2023-02-02T06:33:31.004Z,10.00
2023-02-02T06:34:40.659Z,8.83
2023-02-02T06:35:49.162Z,9.55
2023-02-02T06:36:58.982Z,9.70
2023-02-02T06:38:07.598Z,10.30
2023-02-02T06:40:31.560Z,10.43
2023-02-02T06:41:41.095Z,10.10
2023-02-02T06:43:02.998Z,9.23
2023-02-02T06:44:15.285Z,9.33
2023-02-02T06:45:25.045Z,9.68
2023-02-02T06:46:34.687Z,10.32
2023-02-02T06:47:43.881Z,11.00
2023-02-02T06:48:53.714Z,9.37
2023-02-02T06:51:19.951Z,10.75
2023-02-02T06:52:29.077Z,10.08
2023-02-02T06:53:38.408Z,10.08
2023-02-02T06:54:47.421Z,10.08
2023-02-02T06:55:59.615Z,10.32
2023-02-02T06:57:08.941Z,10.33
2023-02-02T06:58:18.667Z,11.08
2023-02-02T06:59:27.423Z,10.25
2023-02-02T07:01:54.692Z,9.82
2023-02-02T07:03:04.161Z,9.53
2023-02-02T07:04:12.689Z,8.97
2023-02-02T07:05:23.653Z,9.58
2023-02-02T07:06:33.840Z,10.22
2023-02-02T07:07:43.313Z,8.83
2023-02-02T07:09:01.845Z,9.95
2023-02-02T07:10:05.520Z,9.32
2023-02-02T07:11:16.587Z,9.47
2023-02-02T07:12:26.564Z,8.54
2023-02-02T07:13:35.416Z,9.53
2023-02-02T07:14:44.930Z,8.55
2023-02-02T07:15:55.250Z,8.58
2023-02-02T07:17:05.209Z,9.55
2023-02-02T07:18:16.128Z,9.45
2023-02-02T07:19:25.058Z,10.30
2023-02-02T07:21:52.899Z,11.53
2023-02-02T07:23:03.935Z,9.90
2023-02-02T07:24:14.497Z,8.80
2023-02-02T07:25:23.997Z,9.82
2023-02-02T07:26:35.716Z,10.22
2023-02-02T07:27:46.269Z,9.23
2023-02-02T07:28:55.514Z,9.10
2023-02-02T07:30:05.385Z,9.38
2023-02-02T07:31:19.970Z,9.52
2023-02-02T07:32:29.353Z,9.05
2023-02-02T07:33:40.393Z,9.00
2023-02-02T07:36:07.274Z,8.60
2023-02-02T07:38:32.153Z,14.83
2023-02-02T07:39:43.954Z,14.70
2023-02-02T07:42:09.540Z,11.75
2023-02-02T07:43:20.759Z,11.85
2023-02-02T07:44:30.616Z,11.43
2023-02-02T07:45:39.572Z,12.32
2023-02-02T07:48:04.087Z,12.88
2023-02-02T07:49:16.098Z,12.27
2023-02-02T07:50:26.147Z,12.02
2023-02-02T07:51:37.844Z,12.47
2023-02-02T07:52:46.166Z,12.50
2023-02-02T07:53:57.714Z,12.57
2023-02-02T07:55:14.861Z,12.80
2023-02-02T07:56:24.287Z,10.60
2023-02-02T07:57:32.966Z,11.15
2023-02-02T07:58:42.689Z,9.03
2023-02-02T08:01:11.735Z,9.20
2023-02-02T08:02:21.203Z,9.78
2023-02-02T08:03:30.154Z,10.65
2023-02-02T08:04:39.516Z,10.40
2023-02-02T08:05:49.294Z,11.00
2023-02-02T08:06:58.720Z,11.00
2023-02-02T08:08:08.662Z,11.10
2023-02-02T08:09:17.311Z,11.57
2023-02-02T08:10:26.229Z,12.07
2023-02-02T08:11:37.535Z,12.40
2023-02-02T08:12:46.115Z,12.90
2023-02-02T08:14:00.468Z,12.98
2023-02-02T08:15:11.835Z,13.00
2023-02-02T08:16:23.360Z,12.55
2023-02-02T08:17:32.052Z,13.62
2023-02-02T08:18:41.945Z,13.15
2023-02-02T08:19:51.526Z,13.65
2023-02-02T08:22:20.388Z,12.84
2023-02-02T08:24:46.828Z,12.80
2023-02-02T08:26:09.845Z,13.80
2023-02-02T08:27:18.320Z,13.42
2023-02-02T08:28:28.039Z,13.50
2023-02-02T08:29:39.465Z,15.10
2023-02-02T08:30:48.832Z,13.18
2023-02-02T08:31:59.290Z,11.82
2023-02-02T08:33:08.590Z,10.55
2023-02-02T08:34:17.131Z,10.00
2023-02-02T08:35:27.205Z,9.77
2023-02-02T08:36:36.376Z,9.70
2023-02-02T08:37:48.828Z,9.87
2023-02-02T08:40:25.206Z,10.53
2023-02-02T08:41:36.483Z,11.03
2023-02-02T08:42:47.574Z,12.05
2023-02-02T08:46:02.972Z,11.88
2023-02-02T08:46:24.904Z,13.05
2023-02-02T08:47:34.670Z,13.85
2023-02-02T08:48:44.747Z,13.80
2023-02-02T08:49:53.983Z,12.17
2023-02-02T08:51:04.082Z,13.85
2023-02-02T08:52:12.869Z,13.42
2023-02-02T08:53:22.844Z,12.35
2023-02-02T08:54:32.498Z,12.93
2023-02-02T08:55:41.404Z,13.88
2023-02-02T08:56:50.164Z,13.05
2023-02-02T08:57:58.687Z,12.60
2023-02-02T08:59:08.818Z,14.10
2023-02-02T09:01:35.532Z,13.52
2023-02-02T09:02:44.857Z,13.62
2023-02-02T09:03:59.185Z,15.05
2023-02-02T09:05:08.516Z,14.68
2023-02-02T09:06:20.973Z,15.23
2023-02-02T09:07:32.932Z,13.88
2023-02-02T09:08:43.012Z,13.35
2023-02-02T09:09:54.404Z,13.63
2023-02-02T09:12:26.921Z,13.55
2023-02-02T09:13:37.561Z,15.63
2023-02-02T09:16:00.695Z,14.62
2023-02-02T09:17:10.451Z,14.60
2023-02-02T09:18:18.989Z,16.07
2023-02-02T09:20:43.027Z,15.18
2023-02-02T09:23:07.588Z,14.72
2023-02-02T09:24:17.749Z,15.33
2023-02-02T09:25:27.957Z,15.20
2023-02-02T09:26:38.246Z,14.20
2023-02-02T09:27:47.216Z,14.90
2023-02-02T09:29:05.888Z,15.17
2023-02-02T09:30:16.716Z,14.65
2023-02-02T09:31:26.307Z,14.82
2023-02-02T09:32:35.335Z,13.13
2023-02-02T09:33:44.435Z,14.20
2023-02-02T09:34:53.342Z,13.87
2023-02-02T09:36:11.542Z,13.40
2023-02-02T09:37:21.205Z,13.02
2023-02-02T09:38:30.749Z,13.88
2023-02-02T09:39:41.161Z,13.63
2023-02-02T09:44:01.563Z,13.55
2023-02-02T09:47:20.790Z,12.10
2023-02-02T09:48:59.783Z,12.28
2023-02-02T09:50:24.665Z,12.85
2023-02-02T09:51:38.258Z,11.88
2023-02-02T09:53:08.034Z,12.68
2023-02-02T09:54:36.100Z,13.22
2023-02-02T09:55:52.336Z,13.20
2023-02-02T09:57:05.308Z,13.90
2023-02-02T09:58:26.678Z,13.27
2023-02-02T09:59:39.390Z,12.20
2023-02-02T10:01:08.950Z,12.50
2023-02-02T10:02:30.341Z,12.07
2023-02-02T10:04:01.536Z,12.97
2023-02-02T10:05:25.664Z,14.55
2023-02-02T10:06:47.173Z,13.70
2023-02-02T10:07:59.949Z,18.62
2023-02-02T10:10:31.228Z,13.20
2023-02-02T10:12:03.480Z,12.38
2023-02-02T10:13:28.586Z,13.68
2023-02-02T10:17:46.652Z,13.35
2023-02-02T10:20:39.093Z,14.17
2023-02-02T10:23:29.910Z,13.93
2023-02-02T10:24:39.384Z,14.25
2023-02-02T10:25:57.623Z,14.22
2023-02-02T10:27:13.044Z,14.00
2023-02-02T10:28:27.450Z,13.73
2023-02-02T10:29:49.116Z,14.35
2023-02-02T10:32:26.995Z,13.17
2023-02-02T10:33:40.850Z,14.73
2023-02-02T10:35:22.017Z,13.35
2023-02-02T10:36:37.635Z,12.85
2023-02-02T10:37:57.280Z,12.93
2023-02-02T10:41:21.813Z,14.48
2023-02-02T10:44:39.662Z,14.48
2023-02-02T10:47:10.539Z,15.95
2023-02-02T10:48:27.907Z,15.77
2023-02-02T10:49:38.200Z,15.55
2023-02-02T10:50:50.286Z,14.95
2023-02-02T10:52:18.730Z,14.98
2023-02-02T10:53:30.376Z,16.18
2023-02-02T10:55:04.507Z,14.10
2023-02-02T10:56:14.928Z,13.52
2023-02-02T10:58:59.275Z,12.30
2023-02-02T11:01:29.988Z,13.67
2023-02-02T11:02:39.191Z,13.52
2023-02-02T11:03:51.491Z,14.02
2023-02-02T11:05:19.585Z,12.75
2023-02-02T11:06:47.514Z,11.70
2023-02-02T11:07:58.035Z,11.02
2023-02-02T11:10:28.503Z,12.37
2023-02-02T11:11:44.829Z,12.27
2023-02-02T11:13:00.035Z,12.80
2023-02-02T11:15:31.810Z,12.65
2023-02-02T11:18:29.536Z,13.40
2023-02-02T11:19:39.842Z,13.03
2023-02-02T11:22:05.937Z,13.30
2023-02-02T11:24:49.006Z,12.48
2023-02-02T11:26:00.888Z,12.75
2023-02-02T11:28:41.019Z,13.87
2023-02-02T11:29:52.970Z,13.45
2023-02-02T11:31:02.609Z,13.33
2023-02-02T11:32:29.035Z,13.85
2023-02-02T11:33:37.767Z,12.35
2023-02-02T11:34:46.483Z,12.67
2023-02-02T11:35:59.316Z,12.43
2023-02-02T11:37:18.006Z,12.78
2023-02-02T11:38:27.488Z,12.43
2023-02-02T11:39:37.262Z,12.05
2023-02-02T11:40:56.361Z,12.75
2023-02-02T11:42:08.825Z,12.83
2023-02-02T11:44:42.190Z,12.38
2023-02-02T11:47:28.590Z,11.47
2023-02-02T11:48:39.796Z,12.70
2023-02-02T11:49:51.912Z,12.27
2023-02-02T11:51:04.074Z,12.98
2023-02-02T11:52:20.816Z,12.32
2023-02-02T11:53:49.408Z,12.60
2023-02-02T11:56:21.257Z,11.95
2023-02-02T11:57:30.215Z,11.45
2023-02-02T11:58:57.835Z,12.07
2023-02-02T12:00:19.409Z,11.22
2023-02-02T12:01:32.929Z,10.60
2023-02-02T12:04:19.285Z,11.28
2023-02-02T12:05:34.993Z,11.47
2023-02-02T12:06:45.349Z,11.37
2023-02-02T12:07:54.275Z,11.05
2023-02-02T12:09:13.922Z,11.70
2023-02-02T12:10:33.501Z,11.30
2023-02-02T12:12:10.799Z,10.72
2023-02-02T12:13:34.284Z,10.85
2023-02-02T12:15:17.553Z,11.67
2023-02-02T12:18:39.512Z,9.83
2023-02-02T12:21:33.693Z,11.40
2023-02-02T12:26:25.139Z,10.78
2023-02-02T12:29:36.507Z,10.32
2023-02-02T12:31:04.284Z,10.27
2023-02-02T12:35:31.015Z,10.54
2023-02-02T12:38:32.565Z,11.37
2023-02-02T12:41:51.009Z,11.08
2023-02-02T12:43:12.931Z,10.87
2023-02-02T12:47:57.713Z,11.00
2023-02-02T12:52:02.716Z,11.03
2023-02-02T12:53:36.231Z,11.87
2023-02-02T12:54:56.722Z,10.85
2023-02-02T12:57:52.872Z,10.93
2023-02-02T13:02:21.811Z,11.63
2023-02-02T13:05:25.893Z,10.70
2023-02-02T13:06:44.988Z,10.03
2023-02-02T13:10:09.769Z,10.32
2023-02-02T13:16:07.443Z,9.90
2023-02-02T13:18:57.886Z,9.47
2023-02-02T13:20:10.698Z,10.22
2023-02-02T13:21:24.533Z,11.00
2023-02-02T13:23:06.679Z,10.65
2023-02-02T13:24:17.248Z,10.27
2023-02-02T13:25:30.527Z,11.37
2023-02-02T13:28:01.199Z,9.97
2023-02-02T13:29:19.479Z,10.97
2023-02-02T13:30:35.543Z,9.97
2023-02-02T13:31:57.608Z,10.03
2023-02-02T13:34:56.298Z,10.25
2023-02-02T13:37:53.403Z,9.13
2023-02-02T13:40:40.908Z,8.37
2023-02-02T13:41:53.387Z,8.60
2023-02-02T13:43:18.010Z,8.97
2023-02-02T13:46:06.151Z,9.10
2023-02-02T13:49:00.481Z,9.45
2023-02-02T13:52:00.970Z,10.82
2023-02-02T13:53:40.235Z,9.40
2023-02-02T13:56:41.136Z,8.35
2023-02-02T13:58:22.333Z,8.48
2023-02-02T14:01:08.778Z,7.90
2023-02-02T14:02:24.898Z,7.68
2023-02-02T14:08:24.232Z,8.36
2023-02-02T14:09:37.057Z,7.97
2023-02-02T14:10:55.532Z,8.50
2023-02-02T14:12:07.925Z,8.67
2023-02-02T14:14:53.446Z,8.07
2023-02-02T14:16:05.595Z,9.07
2023-02-02T14:17:18.782Z,9.88
2023-02-02T14:18:51.244Z,8.75
2023-02-02T14:20:03.892Z,8.88
2023-02-02T14:22:44.296Z,9.57
2023-02-02T14:23:55.298Z,9.33
2023-02-02T14:25:25.143Z,9.20
2023-02-02T14:26:53.821Z,10.18
2023-02-02T14:28:12.211Z,10.12
2023-02-02T14:29:38.295Z,9.60
2023-02-02T14:30:52.049Z,10.40
2023-02-02T14:32:29.542Z,9.90
2023-02-02T14:33:42.167Z,9.52
2023-02-02T14:36:16.536Z,10.52
2023-02-02T14:37:32.303Z,10.35
2023-02-02T14:39:00.511Z,9.65
2023-02-02T14:41:53.607Z,11.35
2023-02-02T14:43:39.262Z,11.20
2023-02-02T14:46:35.744Z,28.65
2023-02-02T14:49:15.463Z,12.37
2023-02-02T14:51:55.488Z,12.23
2023-02-02T14:53:14.532Z,11.13
2023-02-02T14:54:28.072Z,11.00
2023-02-02T14:57:27.908Z,9.93
2023-02-02T14:58:40.034Z,9.45
2023-02-02T14:59:51.159Z,9.08
2023-02-02T15:03:53.283Z,9.08
2023-02-02T15:05:33.396Z,9.35
2023-02-02T15:06:43.459Z,9.93
2023-02-02T15:07:55.382Z,9.60
2023-02-02T15:09:27.629Z,10.20
2023-02-02T15:10:53.390Z,10.07
2023-02-02T15:13:23.642Z,10.52
2023-02-02T15:14:46.415Z,9.95
2023-02-02T15:16:06.938Z,9.95
2023-02-02T15:17:36.071Z,9.85
2023-02-02T15:18:48.270Z,10.63
2023-02-02T15:22:01.085Z,11.37
2023-02-02T15:23:22.449Z,9.67
2023-02-02T15:24:34.382Z,10.17
2023-02-02T15:26:01.860Z,10.00
2023-02-02T15:27:17.174Z,10.07
2023-02-02T15:28:39.284Z,10.12
2023-02-02T15:31:24.588Z,10.70
2023-02-02T15:32:35.535Z,10.25
2023-02-02T15:36:34.601Z,11.60
2023-02-02T15:37:47.691Z,11.18
2023-02-02T15:40:25.185Z,11.25
2023-02-02T15:41:42.806Z,11.42
2023-02-02T15:43:01.576Z,8.45
2023-02-02T15:45:48.080Z,8.05
2023-02-02T15:47:01.774Z,7.93
2023-02-02T15:49:36.520Z,7.45
2023-02-02T15:52:32.849Z,7.45
2023-02-02T15:53:45.294Z,7.13
2023-02-02T15:54:57.387Z,7.58
2023-02-02T15:56:22.926Z,7.83
2023-02-02T15:57:35.302Z,8.33
2023-02-02T15:58:53.939Z,8.80
2023-02-02T16:00:23.024Z,9.40
2023-02-02T16:01:35.460Z,9.50
2023-02-02T16:02:45.807Z,10.15
2023-02-02T16:05:26.795Z,11.20
2023-02-02T16:06:36.004Z,11.52
2023-02-02T16:07:53.205Z,10.45
2023-02-02T16:08:56.996Z,11.75
2023-02-02T16:10:07.469Z,13.45
2023-02-02T16:11:19.259Z,12.20
2023-02-02T16:12:30.213Z,11.82
2023-02-02T16:13:40.363Z,12.60
2023-02-02T16:14:56.170Z,13.77
2023-02-02T16:16:08.970Z,13.70
2023-02-02T16:17:30.073Z,14.25
2023-02-02T16:18:39.227Z,13.70
2023-02-02T16:21:10.099Z,10.10
2023-02-02T16:22:26.260Z,9.72
2023-02-02T16:23:37.791Z,9.70
2023-02-02T16:24:56.930Z,9.30
2023-02-02T16:26:07.685Z,8.65
2023-02-02T16:27:22.207Z,9.13
2023-02-02T16:28:32.035Z,9.95
2023-02-02T16:29:42.247Z,15.70
2023-02-02T16:30:52.975Z,12.30
2023-02-02T16:32:06.122Z,11.73
2023-02-02T16:33:39.320Z,12.30
2023-02-02T16:34:49.395Z,12.66
2023-02-02T16:35:58.170Z,13.42
2023-02-02T16:37:26.980Z,11.57
2023-02-02T16:38:38.937Z,11.40
2023-02-02T16:39:49.636Z,10.48
2023-02-02T16:42:34.497Z,10.32
2023-02-02T16:43:43.749Z,10.35
2023-02-02T16:44:52.974Z,11.13
2023-02-02T16:46:13.140Z,11.58
2023-02-02T16:47:31.426Z,11.75
2023-02-02T16:48:46.498Z,12.60
2023-02-02T16:50:12.707Z,12.78
2023-02-02T16:51:25.300Z,13.80
2023-02-02T16:52:37.600Z,12.47
2023-02-02T16:53:50.088Z,12.95
2023-02-02T16:54:59.756Z,13.55
2023-02-02T16:56:10.627Z,13.48
2023-02-02T16:57:28.224Z,13.34
2023-02-02T16:59:58.886Z,15.03
2023-02-02T17:01:16.397Z,16.72
2023-02-02T17:03:53.999Z,14.75
2023-02-02T17:05:06.456Z,13.25
2023-02-02T17:06:17.235Z,13.54
2023-02-02T17:07:28.409Z,13.73
2023-02-02T17:08:41.341Z,13.07
2023-02-02T17:09:52.235Z,13.28
2023-02-02T17:12:36.196Z,11.27
2023-02-02T17:13:36.273Z,9.92
2023-02-02T17:15:03.864Z,10.07
2023-02-02T17:16:19.630Z,10.63
2023-02-02T17:17:29.126Z,39.03
2023-02-02T17:18:38.054Z,183.85
2023-02-02T17:19:48.294Z,149.33
2023-02-02T17:21:02.323Z,48.40
2023-02-02T17:22:11.429Z,21.80
2023-02-02T17:23:20.402Z,15.40
2023-02-02T17:25:46.977Z,13.60
2023-02-02T17:26:56.337Z,12.83
2023-02-02T17:28:14.514Z,12.15
2023-02-02T17:29:24.573Z,10.70
2023-02-02T17:30:34.224Z,10.07
2023-02-02T17:31:43.372Z,9.97
2023-02-02T17:32:52.084Z,9.42
2023-02-02T17:34:00.798Z,9.57
2023-02-02T17:36:32.497Z,9.07
2023-02-02T17:37:42.295Z,10.05
2023-02-02T17:40:08.827Z,11.73
2023-02-02T17:41:18.352Z,11.85
2023-02-02T17:42:30.624Z,10.68
2023-02-02T17:45:23.547Z,8.95
2023-02-02T17:46:34.187Z,10.45
2023-02-02T17:47:42.911Z,11.15
2023-02-02T17:48:51.525Z,10.73
2023-02-02T17:50:00.996Z,11.93
2023-02-02T17:51:16.521Z,10.48
2023-02-02T17:52:25.683Z,12.45
2023-02-02T17:53:34.260Z,11.23
2023-02-02T17:54:42.849Z,12.35
2023-02-02T17:55:52.322Z,13.67
2023-02-02T17:57:01.000Z,14.27
2023-02-02T17:58:12.976Z,14.57
2023-02-02T17:59:22.704Z,12.37
2023-02-02T18:00:32.413Z,12.27
2023-02-02T18:01:42.660Z,14.65
2023-02-02T18:04:21.559Z,11.98
2023-02-02T18:05:30.735Z,12.13
2023-02-02T18:07:54.449Z,13.33
2023-02-02T18:09:03.786Z,12.65
2023-02-02T18:11:29.201Z,13.00
2023-02-02T18:12:39.144Z,13.68
2023-02-02T18:13:48.236Z,13.18
2023-02-02T18:16:14.588Z,15.92
2023-02-02T18:17:25.448Z,14.47
2023-02-02T18:19:44.718Z,13.85
2023-02-02T18:20:56.500Z,13.72
2023-02-02T18:22:07.745Z,13.47
2023-02-02T18:23:18.960Z,14.28
2023-02-02T18:24:28.112Z,14.10
2023-02-02T18:26:54.329Z,14.30
2023-02-02T18:28:04.661Z,14.28
2023-02-02T18:29:14.282Z,14.25
2023-02-02T18:30:23.537Z,15.20
2023-02-02T18:31:33.312Z,15.28
2023-02-02T18:32:42.687Z,16.45
2023-02-02T18:33:52.150Z,17.40
2023-02-02T18:35:00.680Z,23.78
2023-02-02T18:36:19.442Z,19.05
2023-02-02T18:37:29.231Z,16.45
2023-02-02T18:39:57.756Z,18.63
2023-02-02T18:41:06.862Z,17.15
2023-02-02T18:42:17.906Z,14.75
2023-02-02T18:43:27.481Z,16.37
2023-02-02T18:44:38.013Z,16.02
2023-02-02T18:47:06.815Z,15.13
2023-02-02T18:48:17.258Z,16.22
2023-02-02T18:49:25.941Z,16.15
2023-02-02T18:50:35.640Z,17.35
2023-02-02T18:51:44.189Z,17.93
2023-02-02T18:52:53.985Z,15.90
2023-02-02T18:54:04.000Z,19.25
2023-02-02T18:55:12.565Z,18.80
2023-02-02T18:56:22.210Z,19.38
2023-02-02T18:57:31.760Z,18.75
2023-02-02T18:58:41.074Z,19.07
2023-02-02T18:59:52.642Z,19.78
2023-02-02T19:01:08.679Z,20.05
2023-02-02T19:02:19.667Z,17.00
2023-02-02T19:03:29.247Z,15.68
2023-02-02T19:04:38.325Z,15.35
2023-02-02T19:06:09.704Z,14.43
2023-02-02T19:07:37.795Z,15.83
2023-02-02T19:08:46.960Z,15.80
2023-02-02T19:11:17.390Z,16.37
2023-02-02T19:12:28.091Z,14.38
2023-02-02T19:13:36.732Z,15.42
2023-02-02T19:14:45.610Z,15.80
2023-02-02T19:15:54.584Z,18.07
2023-02-02T19:18:26.247Z,16.97
2023-02-02T19:19:39.518Z,16.75
2023-02-02T19:20:49.249Z,18.00
2023-02-02T19:22:02.394Z,17.52
2023-02-02T19:24:36.892Z,17.73
2023-02-02T19:25:51.540Z,16.78
2023-02-02T19:28:29.351Z,16.88
2023-02-02T19:33:40.230Z,16.52
2023-02-02T19:34:55.610Z,16.55
2023-02-02T19:36:08.795Z,15.73
2023-02-02T19:37:32.780Z,14.60
2023-02-02T19:40:09.533Z,19.03
2023-02-02T19:41:22.138Z,19.07
2023-02-02T19:42:33.021Z,19.13
2023-02-02T19:46:16.083Z,14.83
2023-02-02T19:51:38.714Z,16.27
2023-02-02T19:52:52.197Z,14.70
2023-02-02T19:54:00.948Z,15.35
2023-02-02T21:07:09.012Z,31.63
2023-02-02T21:09:32.799Z,22.33
2023-02-02T21:10:41.570Z,19.72
2023-02-02T21:11:50.583Z,19.58
2023-02-02T21:12:59.339Z,20.47
2023-02-02T21:14:17.887Z,20.22
2023-02-02T21:15:27.032Z,19.85
2023-02-02T21:16:36.970Z,20.05
2023-02-02T21:17:45.992Z,19.30
2023-02-02T21:18:55.315Z,19.65
2023-02-02T21:20:05.142Z,19.87
2023-02-02T21:21:15.957Z,18.80
2023-02-02T21:23:33.286Z,18.13
2023-02-02T21:24:41.962Z,18.77
2023-02-02T21:25:51.520Z,18.12
2023-02-02T21:27:01.672Z,18.07
2023-02-02T21:28:10.303Z,17.57
2023-02-02T21:29:19.370Z,17.67
2023-02-02T21:30:30.123Z,17.65
2023-02-02T21:32:50.910Z,17.80
2023-02-02T21:33:59.687Z,17.03
2023-02-02T21:35:12.097Z,16.73
2023-02-02T21:36:32.203Z,17.55
2023-02-02T21:39:06.311Z,16.90
2023-02-02T21:40:22.037Z,17.33
2023-02-02T21:41:32.966Z,18.72
2023-02-02T21:44:00.909Z,17.15
2023-02-02T21:45:30.236Z,18.20
2023-02-02T21:46:40.011Z,17.10
2023-02-02T21:48:01.586Z,18.52
2023-02-02T21:49:20.454Z,19.13
2023-02-02T21:50:32.971Z,18.10
2023-02-02T21:51:43.073Z,17.37
2023-02-02T21:54:26.987Z,17.58
2023-02-02T21:56:54.247Z,19.18
2023-02-02T21:59:32.021Z,20.08
2023-02-02T22:00:42.228Z,20.20
2023-02-02T22:01:53.200Z,18.85
2023-02-02T22:03:02.756Z,19.92
2023-02-02T22:04:23.931Z,18.10
2023-02-02T22:05:37.199Z,19.35
2023-02-02T22:08:23.296Z,18.12
2023-02-02T22:10:54.793Z,17.30
2023-02-02T22:13:24.414Z,17.75
2023-02-02T22:15:55.988Z,18.87
2023-02-02T22:17:23.642Z,18.53
2023-02-02T22:18:36.184Z,17.50
2023-02-02T22:19:46.020Z,18.35
2023-02-02T22:20:56.307Z,17.25
2023-02-02T22:22:13.487Z,17.30
2023-02-02T22:23:25.908Z,17.28
2023-02-02T22:25:54.395Z,17.72
2023-02-02T22:27:04.604Z,17.88
2023-02-02T22:29:41.926Z,17.50
2023-02-02T22:30:52.877Z,17.55
2023-02-02T22:32:01.910Z,17.82
2023-02-02T22:33:12.567Z,19.58
2023-02-02T22:34:21.069Z,17.87
2023-02-02T22:35:30.859Z,18.18
2023-02-02T22:37:55.222Z,17.67
2023-02-02T22:39:05.133Z,17.60
2023-02-02T22:41:30.832Z,17.18
2023-02-02T22:42:40.334Z,18.92
2023-02-02T22:45:04.756Z,17.97
2023-02-02T22:46:14.220Z,16.44
2023-02-02T22:47:23.459Z,16.57
2023-02-02T22:48:32.540Z,16.88
2023-02-02T22:49:41.163Z,16.62
2023-02-02T22:50:49.866Z,16.70
2023-02-02T22:51:59.433Z,16.00
2023-02-02T22:54:25.138Z,15.75
2023-02-02T22:55:35.232Z,16.87
2023-02-02T22:56:44.398Z,16.95
2023-02-02T22:57:54.348Z,16.22
2023-02-02T23:00:22.441Z,15.72
2023-02-02T23:01:31.534Z,16.67
2023-02-02T23:02:41.315Z,16.63
2023-02-02T23:03:50.405Z,15.53
2023-02-02T23:05:00.165Z,16.03
2023-02-02T23:06:09.339Z,15.57
2023-02-02T23:07:18.637Z,15.85
2023-02-02T23:08:28.202Z,15.78
2023-02-02T23:09:37.206Z,15.07
2023-02-02T23:10:46.247Z,15.57
2023-02-02T23:11:55.919Z,15.67
2023-02-02T23:13:05.473Z,17.07
2023-02-02T23:14:15.091Z,15.90
2023-02-02T23:15:24.774Z,16.17
2023-02-02T23:16:34.525Z,16.30
2023-02-02T23:17:44.229Z,16.25
2023-02-02T23:18:53.353Z,16.17
2023-02-02T23:21:21.364Z,15.98